sensor_id;sensor_type;location;lat;lon;timestamp;P1;durP1;ratioP1;P2;durP2;ratioP2
32365;SDS011;18837;46.832;16.838;2023-11-21T00:01:23;28.27;;;19.77;;
32365;SDS011;18837;46.832;16.838;2023-11-21T00:03:49;25.83;;;19.40;;
32365;SDS011;18837;46.832;16.838;2023-11-21T00:06:15;25.03;;;18.40;;
32365;SDS011;18837;46.832;16.838;2023-11-21T00:08:41;23.80;;;18.33;;
32365;SDS011;18837;46.832;16.838;2023-11-21T00:11:07;26.97;;;19.00;;
32365;SDS011;18837;46.832;16.838;2023-11-21T00:13:33;25.27;;;18.93;;
32365;SDS011;18837;46.832;16.838;2023-11-21T00:16:12;25.10;;;18.90;;
32365;SDS011;18837;46.832;16.838;2023-11-21T00:18:50;23.37;;;18.10;;
32365;SDS011;18837;46.832;16.838;2023-11-21T00:21:16;23.93;;;17.97;;
32365;SDS011;18837;46.832;16.838;2023-11-21T00:23:42;24.73;;;18.23;;
32365;SDS011;18837;46.832;16.838;2023-11-21T00:26:08;24.83;;;19.13;;
32365;SDS011;18837;46.832;16.838;2023-11-21T00:28:34;23.90;;;18.77;;
32365;SDS011;18837;46.832;16.838;2023-11-21T00:31:00;23.00;;;17.70;;
32365;SDS011;18837;46.832;16.838;2023-11-21T00:33:32;23.80;;;18.10;;
32365;SDS011;18837;46.832;16.838;2023-11-21T00:35:58;26.90;;;19.07;;
32365;SDS011;18837;46.832;16.838;2023-11-21T00:38:25;23.40;;;17.40;;
32365;SDS011;18837;46.832;16.838;2023-11-21T00:40:52;25.60;;;18.43;;
32365;SDS011;18837;46.832;16.838;2023-11-21T00:43:21;23.47;;;18.07;;
32365;SDS011;18837;46.832;16.838;2023-11-21T00:45:49;26.03;;;18.93;;
32365;SDS011;18837;46.832;16.838;2023-11-21T00:48:16;24.27;;;18.17;;
32365;SDS011;18837;46.832;16.838;2023-11-21T00:50:44;24.10;;;18.03;;
32365;SDS011;18837;46.832;16.838;2023-11-21T00:53:25;24.93;;;19.37;;
32365;SDS011;18837;46.832;16.838;2023-11-21T00:55:51;28.70;;;18.27;;
32365;SDS011;18837;46.832;16.838;2023-11-21T00:58:22;23.73;;;18.10;;
32365;SDS011;18837;46.832;16.838;2023-11-21T01:00:51;25.00;;;18.13;;
32365;SDS011;18837;46.832;16.838;2023-11-21T01:03:16;25.30;;;18.13;;
32365;SDS011;18837;46.832;16.838;2023-11-21T01:05:42;26.90;;;19.67;;
32365;SDS011;18837;46.832;16.838;2023-11-21T01:08:08;24.67;;;18.77;;
32365;SDS011;18837;46.832;16.838;2023-11-21T01:10:34;25.03;;;18.20;;
32365;SDS011;18837;46.832;16.838;2023-11-21T01:13:00;22.77;;;17.60;;
32365;SDS011;18837;46.832;16.838;2023-11-21T01:15:26;27.30;;;19.80;;
32365;SDS011;18837;46.832;16.838;2023-11-21T01:17:52;25.80;;;19.20;;
32365;SDS011;18837;46.832;16.838;2023-11-21T01:20:18;23.23;;;16.77;;
32365;SDS011;18837;46.832;16.838;2023-11-21T01:22:56;25.93;;;18.87;;
32365;SDS011;18837;46.832;16.838;2023-11-21T01:25:22;25.67;;;18.10;;
32365;SDS011;18837;46.832;16.838;2023-11-21T01:27:48;24.67;;;17.83;;
32365;SDS011;18837;46.832;16.838;2023-11-21T01:30:14;23.07;;;17.00;;
32365;SDS011;18837;46.832;16.838;2023-11-21T01:32:41;22.97;;;18.07;;
32365;SDS011;18837;46.832;16.838;2023-11-21T01:35:07;23.23;;;17.73;;
32365;SDS011;18837;46.832;16.838;2023-11-21T01:37:34;25.80;;;18.87;;
32365;SDS011;18837;46.832;16.838;2023-11-21T01:42:58;25.20;;;18.30;;
32365;SDS011;18837;46.832;16.838;2023-11-21T01:45:24;25.27;;;18.17;;
32365;SDS011;18837;46.832;16.838;2023-11-21T01:47:50;23.93;;;17.90;;
32365;SDS011;18837;46.832;16.838;2023-11-21T01:50:16;23.97;;;18.67;;
32365;SDS011;18837;46.832;16.838;2023-11-21T01:52:43;29.33;;;20.17;;
32365;SDS011;18837;46.832;16.838;2023-11-21T01:55:11;28.87;;;19.80;;
32365;SDS011;18837;46.832;16.838;2023-11-21T01:57:48;26.00;;;19.10;;
32365;SDS011;18837;46.832;16.838;2023-11-21T02:00:15;24.30;;;18.40;;
32365;SDS011;18837;46.832;16.838;2023-11-21T02:02:45;24.50;;;18.33;;
32365;SDS011;18837;46.832;16.838;2023-11-21T02:05:12;24.93;;;18.87;;
32365;SDS011;18837;46.832;16.838;2023-11-21T02:07:43;24.70;;;18.43;;
32365;SDS011;18837;46.832;16.838;2023-11-21T02:10:09;25.47;;;17.73;;
32365;SDS011;18837;46.832;16.838;2023-11-21T02:12:49;24.90;;;17.97;;
32365;SDS011;18837;46.832;16.838;2023-11-21T02:18:09;26.30;;;19.60;;
32365;SDS011;18837;46.832;16.838;2023-11-21T02:20:36;24.07;;;17.40;;
32365;SDS011;18837;46.832;16.838;2023-11-21T02:23:03;25.17;;;18.83;;
32365;SDS011;18837;46.832;16.838;2023-11-21T02:25:31;23.70;;;18.93;;
32365;SDS011;18837;46.832;16.838;2023-11-21T02:28:01;25.27;;;18.87;;
32365;SDS011;18837;46.832;16.838;2023-11-21T02:30:28;23.60;;;17.80;;
32365;SDS011;18837;46.832;16.838;2023-11-21T02:33:01;23.60;;;18.00;;
32365;SDS011;18837;46.832;16.838;2023-11-21T02:35:27;23.33;;;17.67;;
32365;SDS011;18837;46.832;16.838;2023-11-21T02:37:53;24.13;;;18.20;;
32365;SDS011;18837;46.832;16.838;2023-11-21T02:40:19;25.70;;;17.87;;
32365;SDS011;18837;46.832;16.838;2023-11-21T02:42:51;22.23;;;17.37;;
32365;SDS011;18837;46.832;16.838;2023-11-21T02:45:17;24.23;;;17.70;;
32365;SDS011;18837;46.832;16.838;2023-11-21T02:47:47;25.13;;;18.13;;
32365;SDS011;18837;46.832;16.838;2023-11-21T02:53:05;23.60;;;18.23;;
32365;SDS011;18837;46.832;16.838;2023-11-21T02:55:31;22.77;;;17.30;;
32365;SDS011;18837;46.832;16.838;2023-11-21T02:57:59;23.57;;;18.03;;
32365;SDS011;18837;46.832;16.838;2023-11-21T03:00:26;24.27;;;18.90;;
32365;SDS011;18837;46.832;16.838;2023-11-21T03:02:52;23.83;;;17.67;;
32365;SDS011;18837;46.832;16.838;2023-11-21T03:05:20;25.00;;;17.27;;
32365;SDS011;18837;46.832;16.838;2023-11-21T03:07:51;22.77;;;16.93;;
32365;SDS011;18837;46.832;16.838;2023-11-21T03:10:17;21.00;;;17.00;;
32365;SDS011;18837;46.832;16.838;2023-11-21T03:12:44;20.90;;;16.70;;
32365;SDS011;18837;46.832;16.838;2023-11-21T03:15:10;23.20;;;18.17;;
32365;SDS011;18837;46.832;16.838;2023-11-21T03:17:35;24.47;;;17.53;;
32365;SDS011;18837;46.832;16.838;2023-11-21T03:20:02;23.87;;;17.90;;
32365;SDS011;18837;46.832;16.838;2023-11-21T03:25:37;23.53;;;17.63;;
32365;SDS011;18837;46.832;16.838;2023-11-21T03:28:02;23.87;;;17.40;;
32365;SDS011;18837;46.832;16.838;2023-11-21T03:30:28;21.73;;;16.63;;
32365;SDS011;18837;46.832;16.838;2023-11-21T03:32:54;22.27;;;16.80;;
32365;SDS011;18837;46.832;16.838;2023-11-21T03:35:20;21.67;;;17.33;;
32365;SDS011;18837;46.832;16.838;2023-11-21T03:37:46;24.50;;;18.63;;
32365;SDS011;18837;46.832;16.838;2023-11-21T03:40:21;22.03;;;17.60;;
32365;SDS011;18837;46.832;16.838;2023-11-21T03:42:47;24.50;;;17.47;;
32365;SDS011;18837;46.832;16.838;2023-11-21T03:45:12;20.83;;;16.43;;
32365;SDS011;18837;46.832;16.838;2023-11-21T03:47:40;23.03;;;17.23;;
32365;SDS011;18837;46.832;16.838;2023-11-21T03:50:07;20.90;;;16.53;;
32365;SDS011;18837;46.832;16.838;2023-11-21T03:52:34;23.80;;;17.63;;
32365;SDS011;18837;46.832;16.838;2023-11-21T03:55:00;23.67;;;17.77;;
32365;SDS011;18837;46.832;16.838;2023-11-21T04:00:20;19.80;;;15.57;;
32365;SDS011;18837;46.832;16.838;2023-11-21T04:02:45;22.87;;;17.10;;
32365;SDS011;18837;46.832;16.838;2023-11-21T04:05:11;21.97;;;17.00;;
32365;SDS011;18837;46.832;16.838;2023-11-21T04:07:37;21.87;;;16.63;;
32365;SDS011;18837;46.832;16.838;2023-11-21T04:10:07;23.00;;;17.40;;
32365;SDS011;18837;46.832;16.838;2023-11-21T04:12:34;23.03;;;17.50;;
32365;SDS011;18837;46.832;16.838;2023-11-21T04:15:06;22.67;;;16.83;;
32365;SDS011;18837;46.832;16.838;2023-11-21T04:17:33;21.70;;;16.93;;
32365;SDS011;18837;46.832;16.838;2023-11-21T04:20:00;23.70;;;17.63;;
32365;SDS011;18837;46.832;16.838;2023-11-21T04:22:25;19.83;;;15.20;;
32365;SDS011;18837;46.832;16.838;2023-11-21T04:24:51;19.57;;;16.00;;
32365;SDS011;18837;46.832;16.838;2023-11-21T04:27:17;22.13;;;16.53;;
32365;SDS011;18837;46.832;16.838;2023-11-21T04:32:50;20.17;;;16.23;;
32365;SDS011;18837;46.832;16.838;2023-11-21T04:35:21;25.67;;;17.37;;
32365;SDS011;18837;46.832;16.838;2023-11-21T04:37:47;21.07;;;15.97;;
32365;SDS011;18837;46.832;16.838;2023-11-21T04:40:12;20.40;;;15.73;;
32365;SDS011;18837;46.832;16.838;2023-11-21T04:42:38;22.80;;;17.30;;
32365;SDS011;18837;46.832;16.838;2023-11-21T04:45:04;20.07;;;15.70;;
32365;SDS011;18837;46.832;16.838;2023-11-21T04:47:34;18.47;;;15.67;;
32365;SDS011;18837;46.832;16.838;2023-11-21T04:50:01;20.80;;;15.40;;
32365;SDS011;18837;46.832;16.838;2023-11-21T04:52:28;18.13;;;14.97;;
32365;SDS011;18837;46.832;16.838;2023-11-21T04:54:54;20.17;;;15.80;;
32365;SDS011;18837;46.832;16.838;2023-11-21T04:57:22;20.10;;;15.67;;
32365;SDS011;18837;46.832;16.838;2023-11-21T04:59:48;21.87;;;16.37;;
32365;SDS011;18837;46.832;16.838;2023-11-21T05:02:15;19.43;;;14.70;;
32365;SDS011;18837;46.832;16.838;2023-11-21T05:07:28;21.50;;;14.83;;
32365;SDS011;18837;46.832;16.838;2023-11-21T05:10:22;19.30;;;14.70;;
32365;SDS011;18837;46.832;16.838;2023-11-21T05:12:48;17.63;;;14.20;;
32365;SDS011;18837;46.832;16.838;2023-11-21T05:15:15;19.07;;;13.67;;
32365;SDS011;18837;46.832;16.838;2023-11-21T05:17:46;18.43;;;13.63;;
32365;SDS011;18837;46.832;16.838;2023-11-21T05:20:14;17.83;;;13.87;;
32365;SDS011;18837;46.832;16.838;2023-11-21T05:22:45;17.60;;;13.47;;
32365;SDS011;18837;46.832;16.838;2023-11-21T05:30:16;16.43;;;12.93;;
32365;SDS011;18837;46.832;16.838;2023-11-21T05:32:42;17.47;;;13.30;;
32365;SDS011;18837;46.832;16.838;2023-11-21T05:35:08;18.00;;;13.57;;
32365;SDS011;18837;46.832;16.838;2023-11-21T05:37:37;18.43;;;13.13;;
32365;SDS011;18837;46.832;16.838;2023-11-21T05:40:12;17.30;;;12.73;;
32365;SDS011;18837;46.832;16.838;2023-11-21T05:42:40;16.30;;;13.03;;
32365;SDS011;18837;46.832;16.838;2023-11-21T05:45:06;15.60;;;11.80;;
32365;SDS011;18837;46.832;16.838;2023-11-21T05:47:54;18.13;;;13.07;;
32365;SDS011;18837;46.832;16.838;2023-11-21T05:52:56;16.67;;;12.70;;
32365;SDS011;18837;46.832;16.838;2023-11-21T05:55:23;15.17;;;11.87;;
32365;SDS011;18837;46.832;16.838;2023-11-21T05:57:50;16.97;;;12.70;;
32365;SDS011;18837;46.832;16.838;2023-11-21T06:00:16;15.80;;;12.03;;
32365;SDS011;18837;46.832;16.838;2023-11-21T06:02:47;15.27;;;11.57;;
32365;SDS011;18837;46.832;16.838;2023-11-21T06:05:16;15.57;;;12.40;;
32365;SDS011;18837;46.832;16.838;2023-11-21T06:07:43;15.53;;;12.23;;
32365;SDS011;18837;46.832;16.838;2023-11-21T06:10:10;14.90;;;11.77;;
32365;SDS011;18837;46.832;16.838;2023-11-21T06:12:42;14.33;;;11.10;;
32365;SDS011;18837;46.832;16.838;2023-11-21T06:15:09;15.03;;;12.10;;
32365;SDS011;18837;46.832;16.838;2023-11-21T06:17:38;14.63;;;11.47;;
32365;SDS011;18837;46.832;16.838;2023-11-21T06:20:10;13.90;;;10.80;;
32365;SDS011;18837;46.832;16.838;2023-11-21T06:22:40;14.07;;;11.40;;
32365;SDS011;18837;46.832;16.838;2023-11-21T06:25:11;15.47;;;11.70;;
32365;SDS011;18837;46.832;16.838;2023-11-21T06:27:42;14.87;;;11.63;;
32365;SDS011;18837;46.832;16.838;2023-11-21T06:30:13;14.27;;;11.27;;
32365;SDS011;18837;46.832;16.838;2023-11-21T06:32:40;13.17;;;10.20;;
32365;SDS011;18837;46.832;16.838;2023-11-21T06:35:06;14.80;;;10.23;;
32365;SDS011;18837;46.832;16.838;2023-11-21T06:37:36;14.53;;;10.97;;
32365;SDS011;18837;46.832;16.838;2023-11-21T06:40:02;14.03;;;11.07;;
32365;SDS011;18837;46.832;16.838;2023-11-21T06:42:31;13.57;;;11.03;;
32365;SDS011;18837;46.832;16.838;2023-11-21T06:44:58;14.37;;;10.93;;
32365;SDS011;18837;46.832;16.838;2023-11-21T06:47:24;14.70;;;11.00;;
32365;SDS011;18837;46.832;16.838;2023-11-21T06:49:51;13.83;;;10.17;;
32365;SDS011;18837;46.832;16.838;2023-11-21T06:52:17;13.20;;;10.60;;
32365;SDS011;18837;46.832;16.838;2023-11-21T06:54:43;14.10;;;10.53;;
32365;SDS011;18837;46.832;16.838;2023-11-21T06:57:10;14.10;;;10.27;;
32365;SDS011;18837;46.832;16.838;2023-11-21T06:59:36;14.47;;;11.23;;
32365;SDS011;18837;46.832;16.838;2023-11-21T07:02:02;11.63;;;10.43;;
32365;SDS011;18837;46.832;16.838;2023-11-21T07:04:42;12.40;;;10.20;;
32365;SDS011;18837;46.832;16.838;2023-11-21T07:07:10;13.97;;;9.93;;
32365;SDS011;18837;46.832;16.838;2023-11-21T07:09:37;15.23;;;11.23;;
32365;SDS011;18837;46.832;16.838;2023-11-21T07:12:02;13.57;;;10.00;;
32365;SDS011;18837;46.832;16.838;2023-11-21T07:14:31;14.10;;;10.60;;
32365;SDS011;18837;46.832;16.838;2023-11-21T07:16:57;13.60;;;10.50;;
32365;SDS011;18837;46.832;16.838;2023-11-21T07:19:23;11.17;;;9.63;;
32365;SDS011;18837;46.832;16.838;2023-11-21T07:21:49;11.70;;;10.30;;
32365;SDS011;18837;46.832;16.838;2023-11-21T07:24:18;12.47;;;9.93;;
32365;SDS011;18837;46.832;16.838;2023-11-21T07:26:44;13.30;;;10.00;;
32365;SDS011;18837;46.832;16.838;2023-11-21T07:29:10;13.77;;;10.10;;
32365;SDS011;18837;46.832;16.838;2023-11-21T07:31:37;11.70;;;9.73;;
32365;SDS011;18837;46.832;16.838;2023-11-21T07:34:03;12.10;;;10.23;;
32365;SDS011;18837;46.832;16.838;2023-11-21T07:36:29;13.30;;;10.77;;
32365;SDS011;18837;46.832;16.838;2023-11-21T07:38:56;11.87;;;9.50;;
32365;SDS011;18837;46.832;16.838;2023-11-21T07:41:27;13.03;;;9.60;;
32365;SDS011;18837;46.832;16.838;2023-11-21T07:43:54;12.00;;;9.47;;
32365;SDS011;18837;46.832;16.838;2023-11-21T07:46:21;12.57;;;9.37;;
32365;SDS011;18837;46.832;16.838;2023-11-21T07:48:47;12.07;;;9.73;;
32365;SDS011;18837;46.832;16.838;2023-11-21T07:51:13;12.07;;;9.67;;
32365;SDS011;18837;46.832;16.838;2023-11-21T07:53:39;11.17;;;9.33;;
32365;SDS011;18837;46.832;16.838;2023-11-21T07:56:10;11.67;;;9.17;;
32365;SDS011;18837;46.832;16.838;2023-11-21T07:58:36;11.40;;;8.90;;
32365;SDS011;18837;46.832;16.838;2023-11-21T08:01:02;13.43;;;9.93;;
32365;SDS011;18837;46.832;16.838;2023-11-21T08:03:29;12.23;;;9.23;;
32365;SDS011;18837;46.832;16.838;2023-11-21T08:05:58;11.63;;;9.60;;
32365;SDS011;18837;46.832;16.838;2023-11-21T08:08:24;11.43;;;8.77;;
32365;SDS011;18837;46.832;16.838;2023-11-21T08:10:59;10.90;;;9.23;;
32365;SDS011;18837;46.832;16.838;2023-11-21T08:13:29;13.53;;;9.67;;
32365;SDS011;18837;46.832;16.838;2023-11-21T08:15:56;11.70;;;8.77;;
32365;SDS011;18837;46.832;16.838;2023-11-21T08:18:26;12.53;;;9.67;;
32365;SDS011;18837;46.832;16.838;2023-11-21T08:20:52;11.53;;;9.83;;
32365;SDS011;18837;46.832;16.838;2023-11-21T08:23:20;10.67;;;8.77;;
32365;SDS011;18837;46.832;16.838;2023-11-21T08:25:50;10.33;;;8.83;;
32365;SDS011;18837;46.832;16.838;2023-11-21T08:28:16;12.30;;;9.00;;
32365;SDS011;18837;46.832;16.838;2023-11-21T08:30:42;11.57;;;9.80;;
32365;SDS011;18837;46.832;16.838;2023-11-21T08:33:09;11.87;;;9.70;;
32365;SDS011;18837;46.832;16.838;2023-11-21T08:35:36;13.73;;;9.63;;
32365;SDS011;18837;46.832;16.838;2023-11-21T08:38:02;11.77;;;9.10;;
32365;SDS011;18837;46.832;16.838;2023-11-21T08:40:28;11.70;;;9.83;;
32365;SDS011;18837;46.832;16.838;2023-11-21T08:42:55;11.93;;;8.70;;
32365;SDS011;18837;46.832;16.838;2023-11-21T08:45:25;12.33;;;9.00;;
32365;SDS011;18837;46.832;16.838;2023-11-21T08:47:53;15.00;;;9.83;;
32365;SDS011;18837;46.832;16.838;2023-11-21T08:50:19;10.87;;;9.67;;
32365;SDS011;18837;46.832;16.838;2023-11-21T08:52:46;10.87;;;9.67;;
32365;SDS011;18837;46.832;16.838;2023-11-21T08:55:12;12.33;;;10.00;;
32365;SDS011;18837;46.832;16.838;2023-11-21T08:57:38;11.50;;;9.27;;
32365;SDS011;18837;46.832;16.838;2023-11-21T09:00:14;12.33;;;9.60;;
32365;SDS011;18837;46.832;16.838;2023-11-21T09:02:54;12.20;;;9.67;;
32365;SDS011;18837;46.832;16.838;2023-11-21T09:05:20;11.80;;;9.77;;
32365;SDS011;18837;46.832;16.838;2023-11-21T09:07:46;11.90;;;9.40;;
32365;SDS011;18837;46.832;16.838;2023-11-21T09:10:13;12.87;;;10.00;;
32365;SDS011;18837;46.832;16.838;2023-11-21T09:12:39;10.87;;;9.73;;
32365;SDS011;18837;46.832;16.838;2023-11-21T09:15:08;13.30;;;10.00;;
32365;SDS011;18837;46.832;16.838;2023-11-21T09:17:36;13.37;;;9.30;;
32365;SDS011;18837;46.832;16.838;2023-11-21T09:20:02;13.27;;;10.30;;
32365;SDS011;18837;46.832;16.838;2023-11-21T09:22:30;11.33;;;9.90;;
32365;SDS011;18837;46.832;16.838;2023-11-21T09:24:57;11.00;;;9.20;;
32365;SDS011;18837;46.832;16.838;2023-11-21T09:27:23;11.70;;;9.87;;
32365;SDS011;18837;46.832;16.838;2023-11-21T09:29:49;12.07;;;9.73;;
32365;SDS011;18837;46.832;16.838;2023-11-21T09:32:15;13.03;;;9.80;;
32365;SDS011;18837;46.832;16.838;2023-11-21T09:34:41;12.20;;;9.83;;
32365;SDS011;18837;46.832;16.838;2023-11-21T09:37:08;11.27;;;9.70;;
32365;SDS011;18837;46.832;16.838;2023-11-21T09:39:34;12.00;;;9.60;;
32365;SDS011;18837;46.832;16.838;2023-11-21T09:47:26;11.53;;;9.50;;
32365;SDS011;18837;46.832;16.838;2023-11-21T09:49:53;11.93;;;9.90;;
32365;SDS011;18837;46.832;16.838;2023-11-21T09:52:25;13.67;;;9.90;;
32365;SDS011;18837;46.832;16.838;2023-11-21T09:54:52;12.73;;;10.53;;
32365;SDS011;18837;46.832;16.838;2023-11-21T09:57:21;12.10;;;9.93;;
32365;SDS011;18837;46.832;16.838;2023-11-21T09:59:52;11.93;;;9.93;;
32365;SDS011;18837;46.832;16.838;2023-11-21T10:02:30;12.53;;;9.70;;
32365;SDS011;18837;46.832;16.838;2023-11-21T10:05:01;11.73;;;9.73;;
32365;SDS011;18837;46.832;16.838;2023-11-21T10:07:28;13.23;;;9.90;;
32365;SDS011;18837;46.832;16.838;2023-11-21T10:15:41;12.50;;;11.20;;
32365;SDS011;18837;46.832;16.838;2023-11-21T10:18:13;14.07;;;11.43;;
32365;SDS011;18837;46.832;16.838;2023-11-21T10:20:40;13.53;;;10.67;;
32365;SDS011;18837;46.832;16.838;2023-11-21T10:23:07;14.47;;;11.10;;
32365;SDS011;18837;46.832;16.838;2023-11-21T10:25:36;12.63;;;10.37;;
32365;SDS011;18837;46.832;16.838;2023-11-21T10:28:09;13.27;;;11.07;;
32365;SDS011;18837;46.832;16.838;2023-11-21T10:30:36;15.73;;;11.63;;
32365;SDS011;18837;46.832;16.838;2023-11-21T10:33:03;14.93;;;11.00;;
32365;SDS011;18837;46.832;16.838;2023-11-21T10:35:48;14.33;;;11.67;;
32365;SDS011;18837;46.832;16.838;2023-11-21T10:38:20;15.47;;;11.20;;
32365;SDS011;18837;46.832;16.838;2023-11-21T10:40:48;13.17;;;10.60;;
32365;SDS011;18837;46.832;16.838;2023-11-21T10:43:15;13.17;;;11.10;;
32365;SDS011;18837;46.832;16.838;2023-11-21T10:45:57;13.23;;;10.23;;
32365;SDS011;18837;46.832;16.838;2023-11-21T10:48:24;16.27;;;10.70;;
32365;SDS011;18837;46.832;16.838;2023-11-21T10:50:51;13.70;;;10.93;;
32365;SDS011;18837;46.832;16.838;2023-11-21T10:53:16;16.10;;;11.63;;
32365;SDS011;18837;46.832;16.838;2023-11-21T10:55:44;12.70;;;10.30;;
32365;SDS011;18837;46.832;16.838;2023-11-21T10:58:10;15.00;;;10.70;;
32365;SDS011;18837;46.832;16.838;2023-11-21T11:00:39;12.37;;;10.03;;
32365;SDS011;18837;46.832;16.838;2023-11-21T11:03:08;12.10;;;9.83;;
32365;SDS011;18837;46.832;16.838;2023-11-21T11:05:39;14.83;;;10.73;;
32365;SDS011;18837;46.832;16.838;2023-11-21T11:08:08;13.17;;;10.40;;
32365;SDS011;18837;46.832;16.838;2023-11-21T11:10:36;13.47;;;10.97;;
32365;SDS011;18837;46.832;16.838;2023-11-21T11:13:03;15.53;;;10.50;;
32365;SDS011;18837;46.832;16.838;2023-11-21T11:15:31;13.87;;;10.23;;
32365;SDS011;18837;46.832;16.838;2023-11-21T11:18:03;13.87;;;9.90;;
32365;SDS011;18837;46.832;16.838;2023-11-21T11:35:17;11.53;;;9.50;;
32365;SDS011;18837;46.832;16.838;2023-11-21T11:37:58;10.93;;;8.97;;
32365;SDS011;18837;46.832;16.838;2023-11-21T11:40:25;11.03;;;9.17;;
32365;SDS011;18837;46.832;16.838;2023-11-21T11:43:03;10.40;;;8.73;;
32365;SDS011;18837;46.832;16.838;2023-11-21T11:45:32;10.93;;;8.30;;
32365;SDS011;18837;46.832;16.838;2023-11-21T11:48:00;10.37;;;8.23;;
32365;SDS011;18837;46.832;16.838;2023-11-21T11:50:28;10.77;;;8.40;;
32365;SDS011;18837;46.832;16.838;2023-11-21T11:53:13;11.77;;;8.50;;
32365;SDS011;18837;46.832;16.838;2023-11-21T11:56:18;10.40;;;7.93;;
32365;SDS011;18837;46.832;16.838;2023-11-21T11:59:03;10.80;;;8.23;;
32365;SDS011;18837;46.832;16.838;2023-11-21T12:01:31;12.17;;;9.10;;
32365;SDS011;18837;46.832;16.838;2023-11-21T12:06:39;9.13;;;8.03;;
32365;SDS011;18837;46.832;16.838;2023-11-21T12:09:06;8.47;;;7.60;;
32365;SDS011;18837;46.832;16.838;2023-11-21T12:11:41;8.70;;;7.67;;
32365;SDS011;18837;46.832;16.838;2023-11-21T12:14:09;10.17;;;7.90;;
32365;SDS011;18837;46.832;16.838;2023-11-21T12:16:35;10.57;;;7.90;;
32365;SDS011;18837;46.832;16.838;2023-11-21T12:19:00;9.13;;;7.67;;
32365;SDS011;18837;46.832;16.838;2023-11-21T12:21:26;10.87;;;8.23;;
32365;SDS011;18837;46.832;16.838;2023-11-21T12:23:53;9.83;;;7.47;;
32365;SDS011;18837;46.832;16.838;2023-11-21T12:26:19;10.93;;;7.80;;
32365;SDS011;18837;46.832;16.838;2023-11-21T12:31:50;10.60;;;7.70;;
32365;SDS011;18837;46.832;16.838;2023-11-21T12:34:16;9.70;;;7.67;;
32365;SDS011;18837;46.832;16.838;2023-11-21T12:36:43;9.50;;;7.53;;
32365;SDS011;18837;46.832;16.838;2023-11-21T12:39:10;10.30;;;7.77;;
32365;SDS011;18837;46.832;16.838;2023-11-21T12:41:36;8.93;;;7.67;;
32365;SDS011;18837;46.832;16.838;2023-11-21T12:44:01;9.80;;;7.30;;
32365;SDS011;18837;46.832;16.838;2023-11-21T12:46:34;8.87;;;6.93;;
32365;SDS011;18837;46.832;16.838;2023-11-21T12:49:00;8.83;;;7.13;;
32365;SDS011;18837;46.832;16.838;2023-11-21T12:51:26;7.87;;;6.70;;
32365;SDS011;18837;46.832;16.838;2023-11-21T12:53:54;10.67;;;7.17;;
32365;SDS011;18837;46.832;16.838;2023-11-21T12:56:21;8.33;;;6.70;;
32365;SDS011;18837;46.832;16.838;2023-11-21T12:58:48;8.63;;;7.50;;
32365;SDS011;18837;46.832;16.838;2023-11-21T13:01:21;8.53;;;7.40;;
32365;SDS011;18837;46.832;16.838;2023-11-21T13:07:22;8.40;;;6.33;;
32365;SDS011;18837;46.832;16.838;2023-11-21T13:09:48;8.27;;;6.53;;
32365;SDS011;18837;46.832;16.838;2023-11-21T13:12:23;9.80;;;6.97;;
32365;SDS011;18837;46.832;16.838;2023-11-21T13:14:50;7.70;;;6.03;;
32365;SDS011;18837;46.832;16.838;2023-11-21T13:17:18;10.47;;;6.80;;
32365;SDS011;18837;46.832;16.838;2023-11-21T13:19:44;11.97;;;8.73;;
32365;SDS011;18837;46.832;16.838;2023-11-21T13:22:13;14.03;;;12.50;;
32365;SDS011;18837;46.832;16.838;2023-11-21T13:24:38;13.67;;;11.13;;
32365;SDS011;18837;46.832;16.838;2023-11-21T13:27:04;10.27;;;8.60;;
32365;SDS011;18837;46.832;16.838;2023-11-21T13:29:30;11.60;;;8.63;;
32365;SDS011;18837;46.832;16.838;2023-11-21T13:31:56;9.80;;;7.80;;
32365;SDS011;18837;46.832;16.838;2023-11-21T13:34:21;10.70;;;7.83;;
32365;SDS011;18837;46.832;16.838;2023-11-21T13:42:39;9.53;;;7.77;;
32365;SDS011;18837;46.832;16.838;2023-11-21T13:45:06;10.33;;;7.17;;
32365;SDS011;18837;46.832;16.838;2023-11-21T13:47:33;11.13;;;8.40;;
32365;SDS011;18837;46.832;16.838;2023-11-21T13:50:01;10.97;;;7.27;;
32365;SDS011;18837;46.832;16.838;2023-11-21T13:52:28;10.77;;;7.53;;
32365;SDS011;18837;46.832;16.838;2023-11-21T13:55:15;8.93;;;7.40;;
32365;SDS011;18837;46.832;16.838;2023-11-21T13:57:42;8.63;;;7.10;;
32365;SDS011;18837;46.832;16.838;2023-11-21T14:00:11;8.53;;;7.27;;
32365;SDS011;18837;46.832;16.838;2023-11-21T14:02:57;8.00;;;6.97;;
32365;SDS011;18837;46.832;16.838;2023-11-21T14:05:28;8.80;;;6.63;;
32365;SDS011;18837;46.832;16.838;2023-11-21T14:07:56;8.13;;;6.97;;
32365;SDS011;18837;46.832;16.838;2023-11-21T14:16:30;8.10;;;6.37;;
32365;SDS011;18837;46.832;16.838;2023-11-21T14:18:58;9.03;;;6.67;;
32365;SDS011;18837;46.832;16.838;2023-11-21T14:21:34;8.07;;;6.60;;
32365;SDS011;18837;46.832;16.838;2023-11-21T14:24:00;6.73;;;6.00;;
32365;SDS011;18837;46.832;16.838;2023-11-21T14:26:26;7.17;;;6.30;;
32365;SDS011;18837;46.832;16.838;2023-11-21T14:28:53;7.93;;;6.23;;
32365;SDS011;18837;46.832;16.838;2023-11-21T14:31:20;10.10;;;6.83;;
32365;SDS011;18837;46.832;16.838;2023-11-21T14:33:47;7.47;;;5.87;;
32365;SDS011;18837;46.832;16.838;2023-11-21T14:36:13;6.97;;;5.93;;
32365;SDS011;18837;46.832;16.838;2023-11-21T14:38:42;7.20;;;6.20;;
32365;SDS011;18837;46.832;16.838;2023-11-21T14:41:07;6.80;;;5.83;;
32365;SDS011;18837;46.832;16.838;2023-11-21T14:43:36;7.00;;;5.57;;
32365;SDS011;18837;46.832;16.838;2023-11-21T14:48:53;6.47;;;5.67;;
32365;SDS011;18837;46.832;16.838;2023-11-21T14:51:44;7.17;;;5.93;;
32365;SDS011;18837;46.832;16.838;2023-11-21T14:54:25;7.00;;;6.30;;
32365;SDS011;18837;46.832;16.838;2023-11-21T14:57:10;8.17;;;5.63;;
32365;SDS011;18837;46.832;16.838;2023-11-21T14:59:45;8.03;;;5.97;;
32365;SDS011;18837;46.832;16.838;2023-11-21T15:02:22;6.13;;;5.53;;
32365;SDS011;18837;46.832;16.838;2023-11-21T15:05:13;7.13;;;5.83;;
32365;SDS011;18837;46.832;16.838;2023-11-21T15:07:41;6.80;;;5.63;;
32365;SDS011;18837;46.832;16.838;2023-11-21T15:10:08;8.07;;;6.53;;
32365;SDS011;18837;46.832;16.838;2023-11-21T15:12:39;6.37;;;5.63;;
32365;SDS011;18837;46.832;16.838;2023-11-21T15:15:05;6.50;;;5.80;;
32365;SDS011;18837;46.832;16.838;2023-11-21T15:17:35;7.17;;;6.17;;
32365;SDS011;18837;46.832;16.838;2023-11-21T15:20:14;7.30;;;5.37;;
32365;SDS011;18837;46.832;16.838;2023-11-21T15:25:37;7.20;;;5.60;;
32365;SDS011;18837;46.832;16.838;2023-11-21T15:28:03;6.13;;;5.33;;
32365;SDS011;18837;46.832;16.838;2023-11-21T15:30:30;6.37;;;5.43;;
32365;SDS011;18837;46.832;16.838;2023-11-21T15:32:59;7.07;;;5.93;;
32365;SDS011;18837;46.832;16.838;2023-11-21T15:35:26;8.60;;;5.43;;
32365;SDS011;18837;46.832;16.838;2023-11-21T15:37:54;7.87;;;5.53;;
32365;SDS011;18837;46.832;16.838;2023-11-21T15:40:29;6.07;;;5.20;;
32365;SDS011;18837;46.832;16.838;2023-11-21T15:42:58;7.53;;;5.70;;
32365;SDS011;18837;46.832;16.838;2023-11-21T15:45:24;6.67;;;5.60;;